sensor_id;sensor_type;location;lat;lon;timestamp;P1;durP1;ratioP1;P2;durP2;ratioP2
23404;SDS011;11875;49.356;2.718;2023-07-30T00:02:01;5.13;;;1.20;;
23404;SDS011;11875;49.356;2.718;2023-07-30T00:04:27;3.47;;;1.50;;
23404;SDS011;11875;49.356;2.718;2023-07-30T00:06:52;3.30;;;1.42;;
23404;SDS011;11875;49.356;2.718;2023-07-30T00:09:18;4.72;;;1.60;;
23404;SDS011;11875;49.356;2.718;2023-07-30T00:11:44;3.88;;;1.40;;
23404;SDS011;11875;49.356;2.718;2023-07-30T00:14:09;4.18;;;1.65;;
23404;SDS011;11875;49.356;2.718;2023-07-30T00:16:35;2.63;;;1.35;;
23404;SDS011;11875;49.356;2.718;2023-07-30T00:19:00;2.60;;;1.30;;
23404;SDS011;11875;49.356;2.718;2023-07-30T00:21:26;4.85;;;1.38;;
23404;SDS011;11875;49.356;2.718;2023-07-30T00:23:51;3.95;;;1.27;;
23404;SDS011;11875;49.356;2.718;2023-07-30T00:26:17;4.45;;;1.40;;
23404;SDS011;11875;49.356;2.718;2023-07-30T00:28:43;2.33;;;1.50;;
23404;SDS011;11875;49.356;2.718;2023-07-30T00:31:08;4.63;;;1.58;;
23404;SDS011;11875;49.356;2.718;2023-07-30T00:33:34;3.55;;;1.35;;
23404;SDS011;11875;49.356;2.718;2023-07-30T00:35:59;3.65;;;1.52;;
23404;SDS011;11875;49.356;2.718;2023-07-30T00:38:25;8.13;;;1.67;;
23404;SDS011;11875;49.356;2.718;2023-07-30T00:40:50;5.28;;;1.52;;
23404;SDS011;11875;49.356;2.718;2023-07-30T00:43:16;3.70;;;1.48;;
23404;SDS011;11875;49.356;2.718;2023-07-30T00:45:42;4.45;;;1.30;;
23404;SDS011;11875;49.356;2.718;2023-07-30T00:48:09;3.30;;;1.40;;
23404;SDS011;11875;49.356;2.718;2023-07-30T00:50:36;3.05;;;1.48;;
23404;SDS011;11875;49.356;2.718;2023-07-30T00:53:03;4.57;;;1.83;;
23404;SDS011;11875;49.356;2.718;2023-07-30T00:55:29;3.72;;;1.40;;
23404;SDS011;11875;49.356;2.718;2023-07-30T00:57:54;2.45;;;1.30;;
23404;SDS011;11875;49.356;2.718;2023-07-30T01:00:22;6.38;;;1.98;;
23404;SDS011;11875;49.356;2.718;2023-07-30T01:02:49;4.00;;;1.65;;
23404;SDS011;11875;49.356;2.718;2023-07-30T01:05:16;3.58;;;1.38;;
23404;SDS011;11875;49.356;2.718;2023-07-30T01:07:41;6.30;;;1.42;;
23404;SDS011;11875;49.356;2.718;2023-07-30T01:10:07;4.28;;;1.30;;
23404;SDS011;11875;49.356;2.718;2023-07-30T01:12:33;4.90;;;1.70;;
23404;SDS011;11875;49.356;2.718;2023-07-30T01:15:00;4.45;;;1.40;;
23404;SDS011;11875;49.356;2.718;2023-07-30T01:17:26;5.10;;;1.70;;
23404;SDS011;11875;49.356;2.718;2023-07-30T01:19:52;5.03;;;1.77;;
23404;SDS011;11875;49.356;2.718;2023-07-30T01:22:20;5.80;;;1.45;;
23404;SDS011;11875;49.356;2.718;2023-07-30T01:24:46;5.68;;;1.95;;
23404;SDS011;11875;49.356;2.718;2023-07-30T01:27:14;5.00;;;1.55;;
23404;SDS011;11875;49.356;2.718;2023-07-30T01:32:33;3.50;;;1.67;;
23404;SDS011;11875;49.356;2.718;2023-07-30T01:34:59;5.43;;;1.58;;
23404;SDS011;11875;49.356;2.718;2023-07-30T01:37:26;4.32;;;1.88;;
23404;SDS011;11875;49.356;2.718;2023-07-30T01:39:52;6.47;;;2.17;;
23404;SDS011;11875;49.356;2.718;2023-07-30T01:42:18;7.03;;;1.95;;
23404;SDS011;11875;49.356;2.718;2023-07-30T01:44:44;3.80;;;1.80;;
23404;SDS011;11875;49.356;2.718;2023-07-30T01:47:10;4.65;;;2.00;;
23404;SDS011;11875;49.356;2.718;2023-07-30T01:49:35;4.15;;;1.92;;
23404;SDS011;11875;49.356;2.718;2023-07-30T01:52:01;3.63;;;1.85;;
23404;SDS011;11875;49.356;2.718;2023-07-30T01:54:26;9.30;;;2.17;;
23404;SDS011;11875;49.356;2.718;2023-07-30T01:56:53;5.28;;;1.95;;
23404;SDS011;11875;49.356;2.718;2023-07-30T01:59:19;5.53;;;2.40;;
23404;SDS011;11875;49.356;2.718;2023-07-30T02:01:45;5.68;;;2.25;;
23404;SDS011;11875;49.356;2.718;2023-07-30T02:04:10;5.85;;;2.22;;
23404;SDS011;11875;49.356;2.718;2023-07-30T02:06:37;5.32;;;2.22;;
23404;SDS011;11875;49.356;2.718;2023-07-30T02:09:03;7.57;;;2.25;;
23404;SDS011;11875;49.356;2.718;2023-07-30T02:11:28;4.82;;;2.15;;
23404;SDS011;11875;49.356;2.718;2023-07-30T02:13:54;6.43;;;2.63;;
23404;SDS011;11875;49.356;2.718;2023-07-30T02:16:19;4.10;;;2.00;;
23404;SDS011;11875;49.356;2.718;2023-07-30T02:18:45;6.15;;;2.17;;
23404;SDS011;11875;49.356;2.718;2023-07-30T02:21:12;8.65;;;2.63;;
23404;SDS011;11875;49.356;2.718;2023-07-30T02:23:37;5.07;;;2.50;;
23404;SDS011;11875;49.356;2.718;2023-07-30T02:26:03;8.23;;;2.40;;
23404;SDS011;11875;49.356;2.718;2023-07-30T02:28:28;5.03;;;2.08;;
23404;SDS011;11875;49.356;2.718;2023-07-30T02:30:54;6.97;;;2.63;;
23404;SDS011;11875;49.356;2.718;2023-07-30T02:33:19;9.18;;;2.95;;
23404;SDS011;11875;49.356;2.718;2023-07-30T02:35:45;6.43;;;2.60;;
23404;SDS011;11875;49.356;2.718;2023-07-30T02:38:10;4.68;;;2.30;;
23404;SDS011;11875;49.356;2.718;2023-07-30T02:40:36;6.30;;;2.67;;
23404;SDS011;11875;49.356;2.718;2023-07-30T02:43:02;4.32;;;2.33;;
23404;SDS011;11875;49.356;2.718;2023-07-30T02:45:27;5.85;;;2.40;;
23404;SDS011;11875;49.356;2.718;2023-07-30T02:47:54;5.43;;;2.28;;
23404;SDS011;11875;49.356;2.718;2023-07-30T02:50:20;4.53;;;2.58;;
23404;SDS011;11875;49.356;2.718;2023-07-30T02:52:45;10.23;;;3.00;;
23404;SDS011;11875;49.356;2.718;2023-07-30T02:55:11;5.68;;;2.42;;
23404;SDS011;11875;49.356;2.718;2023-07-30T02:57:37;10.35;;;3.03;;
23404;SDS011;11875;49.356;2.718;2023-07-30T03:00:02;9.77;;;2.63;;
23404;SDS011;11875;49.356;2.718;2023-07-30T03:02:29;11.82;;;2.88;;
23404;SDS011;11875;49.356;2.718;2023-07-30T03:04:55;5.65;;;2.78;;
23404;SDS011;11875;49.356;2.718;2023-07-30T03:07:20;10.70;;;3.15;;
23404;SDS011;11875;49.356;2.718;2023-07-30T03:09:46;12.10;;;2.60;;
23404;SDS011;11875;49.356;2.718;2023-07-30T03:12:12;7.20;;;2.45;;
23404;SDS011;11875;49.356;2.718;2023-07-30T03:14:37;9.77;;;2.88;;
23404;SDS011;11875;49.356;2.718;2023-07-30T03:17:03;7.45;;;2.92;;
23404;SDS011;11875;49.356;2.718;2023-07-30T03:19:29;9.25;;;3.25;;
23404;SDS011;11875;49.356;2.718;2023-07-30T03:21:55;7.97;;;3.03;;
23404;SDS011;11875;49.356;2.718;2023-07-30T03:24:21;9.50;;;3.13;;
23404;SDS011;11875;49.356;2.718;2023-07-30T03:26:47;10.85;;;3.35;;
23404;SDS011;11875;49.356;2.718;2023-07-30T03:29:12;13.00;;;3.38;;
23404;SDS011;11875;49.356;2.718;2023-07-30T03:31:38;12.70;;;3.55;;
23404;SDS011;11875;49.356;2.718;2023-07-30T03:34:03;13.25;;;3.50;;
23404;SDS011;11875;49.356;2.718;2023-07-30T03:36:29;11.10;;;3.50;;
23404;SDS011;11875;49.356;2.718;2023-07-30T03:38:55;10.52;;;3.88;;
23404;SDS011;11875;49.356;2.718;2023-07-30T03:41:20;9.63;;;3.28;;
23404;SDS011;11875;49.356;2.718;2023-07-30T03:43:47;11.18;;;3.47;;
23404;SDS011;11875;49.356;2.718;2023-07-30T03:46:12;8.20;;;2.58;;
23404;SDS011;11875;49.356;2.718;2023-07-30T03:48:38;9.80;;;3.38;;
23404;SDS011;11875;49.356;2.718;2023-07-30T03:51:03;9.43;;;2.95;;
23404;SDS011;11875;49.356;2.718;2023-07-30T03:53:29;9.98;;;3.30;;
23404;SDS011;11875;49.356;2.718;2023-07-30T03:55:55;10.63;;;3.30;;
23404;SDS011;11875;49.356;2.718;2023-07-30T03:58:20;8.05;;;3.25;;
23404;SDS011;11875;49.356;2.718;2023-07-30T04:00:46;8.27;;;2.97;;
23404;SDS011;11875;49.356;2.718;2023-07-30T04:03:11;10.48;;;3.17;;
23404;SDS011;11875;49.356;2.718;2023-07-30T04:05:37;9.52;;;3.20;;
23404;SDS011;11875;49.356;2.718;2023-07-30T04:08:02;12.82;;;3.00;;
23404;SDS011;11875;49.356;2.718;2023-07-30T04:10:28;6.50;;;2.70;;
23404;SDS011;11875;49.356;2.718;2023-07-30T04:12:54;9.90;;;2.88;;
23404;SDS011;11875;49.356;2.718;2023-07-30T04:15:19;9.82;;;2.70;;
23404;SDS011;11875;49.356;2.718;2023-07-30T04:17:45;11.15;;;3.08;;
23404;SDS011;11875;49.356;2.718;2023-07-30T04:20:10;10.18;;;3.08;;
23404;SDS011;11875;49.356;2.718;2023-07-30T04:22:36;9.38;;;3.00;;
23404;SDS011;11875;49.356;2.718;2023-07-30T04:25:02;13.95;;;2.65;;
23404;SDS011;11875;49.356;2.718;2023-07-30T04:27:28;7.78;;;2.65;;
23404;SDS011;11875;49.356;2.718;2023-07-30T04:29:53;13.48;;;2.50;;
23404;SDS011;11875;49.356;2.718;2023-07-30T04:32:19;10.20;;;2.80;;
23404;SDS011;11875;49.356;2.718;2023-07-30T04:34:44;7.88;;;2.92;;
23404;SDS011;11875;49.356;2.718;2023-07-30T04:37:10;7.93;;;2.60;;
23404;SDS011;11875;49.356;2.718;2023-07-30T04:39:35;9.13;;;2.38;;
23404;SDS011;11875;49.356;2.718;2023-07-30T04:42:02;7.90;;;2.60;;
23404;SDS011;11875;49.356;2.718;2023-07-30T04:44:28;6.70;;;2.60;;
23404;SDS011;11875;49.356;2.718;2023-07-30T04:46:53;9.20;;;2.70;;
23404;SDS011;11875;49.356;2.718;2023-07-30T04:49:19;7.53;;;2.70;;
23404;SDS011;11875;49.356;2.718;2023-07-30T04:51:45;9.32;;;2.72;;
23404;SDS011;11875;49.356;2.718;2023-07-30T04:54:10;8.30;;;2.38;;
23404;SDS011;11875;49.356;2.718;2023-07-30T04:56:36;9.15;;;2.67;;
23404;SDS011;11875;49.356;2.718;2023-07-30T04:59:02;9.45;;;2.97;;
23404;SDS011;11875;49.356;2.718;2023-07-30T05:01:28;11.55;;;3.35;;
23404;SDS011;11875;49.356;2.718;2023-07-30T05:03:54;10.35;;;2.47;;
23404;SDS011;11875;49.356;2.718;2023-07-30T05:06:20;8.82;;;2.40;;
23404;SDS011;11875;49.356;2.718;2023-07-30T05:08:46;11.35;;;2.60;;
23404;SDS011;11875;49.356;2.718;2023-07-30T05:11:11;10.77;;;2.50;;
23404;SDS011;11875;49.356;2.718;2023-07-30T05:13:37;6.07;;;2.38;;
23404;SDS011;11875;49.356;2.718;2023-07-30T05:16:02;7.28;;;2.40;;
23404;SDS011;11875;49.356;2.718;2023-07-30T05:18:28;10.32;;;2.45;;
23404;SDS011;11875;49.356;2.718;2023-07-30T05:20:54;7.05;;;2.33;;
23404;SDS011;11875;49.356;2.718;2023-07-30T05:23:20;7.18;;;2.38;;
23404;SDS011;11875;49.356;2.718;2023-07-30T05:25:45;9.68;;;2.67;;
23404;SDS011;11875;49.356;2.718;2023-07-30T05:28:11;12.07;;;2.72;;
23404;SDS011;11875;49.356;2.718;2023-07-30T05:30:37;6.45;;;2.20;;
23404;SDS011;11875;49.356;2.718;2023-07-30T05:33:02;10.73;;;2.45;;
23404;SDS011;11875;49.356;2.718;2023-07-30T05:35:28;12.23;;;3.50;;
23404;SDS011;11875;49.356;2.718;2023-07-30T05:37:54;20.95;;;2.53;;
23404;SDS011;11875;49.356;2.718;2023-07-30T05:40:20;7.53;;;2.28;;
23404;SDS011;11875;49.356;2.718;2023-07-30T05:42:46;7.00;;;2.38;;
23404;SDS011;11875;49.356;2.718;2023-07-30T05:45:12;10.85;;;2.53;;
23404;SDS011;11875;49.356;2.718;2023-07-30T05:47:37;14.70;;;2.70;;
23404;SDS011;11875;49.356;2.718;2023-07-30T05:50:03;11.00;;;2.72;;
23404;SDS011;11875;49.356;2.718;2023-07-30T05:52:30;14.52;;;2.60;;
23404;SDS011;11875;49.356;2.718;2023-07-30T05:54:55;16.88;;;2.67;;
23404;SDS011;11875;49.356;2.718;2023-07-30T05:57:21;10.90;;;2.95;;
23404;SDS011;11875;49.356;2.718;2023-07-30T05:59:46;8.23;;;2.38;;
23404;SDS011;11875;49.356;2.718;2023-07-30T06:02:12;13.05;;;2.60;;
23404;SDS011;11875;49.356;2.718;2023-07-30T06:04:37;13.82;;;2.97;;
23404;SDS011;11875;49.356;2.718;2023-07-30T06:07:03;14.35;;;2.38;;
23404;SDS011;11875;49.356;2.718;2023-07-30T06:09:29;7.97;;;2.22;;
23404;SDS011;11875;49.356;2.718;2023-07-30T06:11:56;12.20;;;2.45;;
23404;SDS011;11875;49.356;2.718;2023-07-30T06:14:25;16.05;;;2.65;;
23404;SDS011;11875;49.356;2.718;2023-07-30T06:16:52;12.25;;;2.35;;
23404;SDS011;11875;49.356;2.718;2023-07-30T06:19:18;14.73;;;2.60;;
23404;SDS011;11875;49.356;2.718;2023-07-30T06:21:44;7.88;;;2.10;;
23404;SDS011;11875;49.356;2.718;2023-07-30T06:24:10;13.85;;;2.45;;
23404;SDS011;11875;49.356;2.718;2023-07-30T06:26:35;6.95;;;2.50;;
23404;SDS011;11875;49.356;2.718;2023-07-30T06:29:01;16.88;;;2.92;;
23404;SDS011;11875;49.356;2.718;2023-07-30T06:31:27;9.98;;;2.28;;
23404;SDS011;11875;49.356;2.718;2023-07-30T06:33:52;10.75;;;2.58;;
23404;SDS011;11875;49.356;2.718;2023-07-30T06:36:18;15.90;;;2.53;;
23404;SDS011;11875;49.356;2.718;2023-07-30T06:38:44;11.35;;;2.67;;
23404;SDS011;11875;49.356;2.718;2023-07-30T06:41:09;8.93;;;1.95;;
23404;SDS011;11875;49.356;2.718;2023-07-30T06:43:35;12.52;;;2.30;;
23404;SDS011;11875;49.356;2.718;2023-07-30T06:46:00;9.77;;;2.38;;
23404;SDS011;11875;49.356;2.718;2023-07-30T06:48:26;9.00;;;2.50;;
23404;SDS011;11875;49.356;2.718;2023-07-30T06:50:52;12.75;;;2.65;;
23404;SDS011;11875;49.356;2.718;2023-07-30T06:53:17;8.35;;;2.50;;
23404;SDS011;11875;49.356;2.718;2023-07-30T06:55:43;10.48;;;2.30;;
23404;SDS011;11875;49.356;2.718;2023-07-30T06:58:08;15.88;;;2.55;;
23404;SDS011;11875;49.356;2.718;2023-07-30T07:00:35;15.02;;;2.72;;
23404;SDS011;11875;49.356;2.718;2023-07-30T07:03:00;16.55;;;2.95;;
23404;SDS011;11875;49.356;2.718;2023-07-30T07:05:26;10.65;;;2.22;;
23404;SDS011;11875;49.356;2.718;2023-07-30T07:07:51;10.50;;;2.20;;
23404;SDS011;11875;49.356;2.718;2023-07-30T07:10:17;12.43;;;2.42;;
23404;SDS011;11875;49.356;2.718;2023-07-30T07:12:42;13.15;;;2.28;;
23404;SDS011;11875;49.356;2.718;2023-07-30T07:15:08;9.60;;;2.38;;
23404;SDS011;11875;49.356;2.718;2023-07-30T07:17:34;10.43;;;2.05;;
23404;SDS011;11875;49.356;2.718;2023-07-30T07:20:00;16.90;;;2.42;;
23404;SDS011;11875;49.356;2.718;2023-07-30T07:22:26;10.65;;;2.38;;
23404;SDS011;11875;49.356;2.718;2023-07-30T07:24:51;6.95;;;1.88;;
23404;SDS011;11875;49.356;2.718;2023-07-30T07:27:18;7.25;;;2.15;;
23404;SDS011;11875;49.356;2.718;2023-07-30T07:29:44;10.85;;;2.13;;
23404;SDS011;11875;49.356;2.718;2023-07-30T07:32:09;10.27;;;2.58;;
23404;SDS011;11875;49.356;2.718;2023-07-30T07:34:35;12.48;;;1.92;;
23404;SDS011;11875;49.356;2.718;2023-07-30T07:37:01;13.10;;;2.60;;
23404;SDS011;11875;49.356;2.718;2023-07-30T07:39:27;14.57;;;2.65;;
23404;SDS011;11875;49.356;2.718;2023-07-30T07:41:53;8.52;;;2.33;;
23404;SDS011;11875;49.356;2.718;2023-07-30T07:44:18;10.77;;;2.53;;
23404;SDS011;11875;49.356;2.718;2023-07-30T07:46:44;13.73;;;2.42;;
23404;SDS011;11875;49.356;2.718;2023-07-30T07:49:09;9.65;;;2.15;;
23404;SDS011;11875;49.356;2.718;2023-07-30T07:51:35;7.18;;;1.90;;
23404;SDS011;11875;49.356;2.718;2023-07-30T07:54:01;11.25;;;2.42;;
23404;SDS011;11875;49.356;2.718;2023-07-30T07:56:26;10.57;;;1.77;;
23404;SDS011;11875;49.356;2.718;2023-07-30T07:58:52;8.95;;;2.40;;
23404;SDS011;11875;49.356;2.718;2023-07-30T08:01:17;11.18;;;1.85;;
23404;SDS011;11875;49.356;2.718;2023-07-30T08:03:43;8.48;;;2.08;;
23404;SDS011;11875;49.356;2.718;2023-07-30T08:06:09;5.00;;;2.17;;
23404;SDS011;11875;49.356;2.718;2023-07-30T08:08:34;7.43;;;2.03;;
23404;SDS011;11875;49.356;2.718;2023-07-30T08:11:04;7.75;;;1.95;;
23404;SDS011;11875;49.356;2.718;2023-07-30T08:13:31;6.78;;;2.08;;
23404;SDS011;11875;49.356;2.718;2023-07-30T08:15:57;11.75;;;2.17;;
23404;SDS011;11875;49.356;2.718;2023-07-30T08:18:22;11.00;;;2.50;;
23404;SDS011;11875;49.356;2.718;2023-07-30T08:20:49;8.07;;;2.40;;
23404;SDS011;11875;49.356;2.718;2023-07-30T08:23:14;10.38;;;2.08;;
23404;SDS011;11875;49.356;2.718;2023-07-30T08:25:40;9.20;;;2.10;;
23404;SDS011;11875;49.356;2.718;2023-07-30T08:28:06;11.52;;;2.50;;
23404;SDS011;11875;49.356;2.718;2023-07-30T08:30:31;8.35;;;2.03;;
23404;SDS011;11875;49.356;2.718;2023-07-30T08:32:57;8.43;;;2.58;;
23404;SDS011;11875;49.356;2.718;2023-07-30T08:35:22;6.40;;;2.10;;
23404;SDS011;11875;49.356;2.718;2023-07-30T08:37:48;8.80;;;2.47;;
23404;SDS011;11875;49.356;2.718;2023-07-30T08:40:14;9.95;;;1.83;;
23404;SDS011;11875;49.356;2.718;2023-07-30T08:42:40;13.70;;;2.50;;
23404;SDS011;11875;49.356;2.718;2023-07-30T08:45:06;7.63;;;2.10;;
23404;SDS011;11875;49.356;2.718;2023-07-30T08:47:35;10.55;;;2.10;;
23404;SDS011;11875;49.356;2.718;2023-07-30T08:50:01;10.32;;;2.00;;
23404;SDS011;11875;49.356;2.718;2023-07-30T08:52:26;8.38;;;1.95;;
23404;SDS011;11875;49.356;2.718;2023-07-30T08:54:54;10.07;;;2.30;;
23404;SDS011;11875;49.356;2.718;2023-07-30T08:57:22;5.07;;;1.63;;
23404;SDS011;11875;49.356;2.718;2023-07-30T09:00:22;11.27;;;2.58;;
23404;SDS011;11875;49.356;2.718;2023-07-30T09:02:52;8.93;;;2.20;;
23404;SDS011;11875;49.356;2.718;2023-07-30T09:05:20;9.52;;;1.98;;
23404;SDS011;11875;49.356;2.718;2023-07-30T09:07:47;5.53;;;1.80;;
23404;SDS011;11875;49.356;2.718;2023-07-30T09:10:13;6.90;;;3.00;;
23404;SDS011;11875;49.356;2.718;2023-07-30T09:12:40;5.95;;;1.75;;
23404;SDS011;11875;49.356;2.718;2023-07-30T09:15:06;5.93;;;1.90;;
23404;SDS011;11875;49.356;2.718;2023-07-30T09:17:33;7.60;;;2.33;;
23404;SDS011;11875;49.356;2.718;2023-07-30T09:20:00;7.38;;;2.05;;
23404;SDS011;11875;49.356;2.718;2023-07-30T09:22:29;9.02;;;1.90;;
23404;SDS011;11875;49.356;2.718;2023-07-30T09:25:00;6.60;;;2.20;;
23404;SDS011;11875;49.356;2.718;2023-07-30T09:27:27;4.57;;;1.67;;
23404;SDS011;11875;49.356;2.718;2023-07-30T09:29:53;11.65;;;2.28;;
23404;SDS011;11875;49.356;2.718;2023-07-30T09:32:26;5.72;;;1.88;;
23404;SDS011;11875;49.356;2.718;2023-07-30T09:34:53;7.00;;;1.98;;
23404;SDS011;11875;49.356;2.718;2023-07-30T09:37:19;6.93;;;1.90;;
23404;SDS011;11875;49.356;2.718;2023-07-30T09:39:47;8.05;;;2.03;;
23404;SDS011;11875;49.356;2.718;2023-07-30T09:42:13;4.47;;;1.77;;
23404;SDS011;11875;49.356;2.718;2023-07-30T09:44:39;7.20;;;1.80;;
23404;SDS011;11875;49.356;2.718;2023-07-30T09:47:04;4.57;;;1.58;;
23404;SDS011;11875;49.356;2.718;2023-07-30T09:49:34;6.55;;;1.80;;
23404;SDS011;11875;49.356;2.718;2023-07-30T09:52:01;6.88;;;1.90;;
23404;SDS011;11875;49.356;2.718;2023-07-30T09:54:28;6.78;;;1.40;;
23404;SDS011;11875;49.356;2.718;2023-07-30T09:56:55;8.45;;;1.95;;
23404;SDS011;11875;49.356;2.718;2023-07-30T09:59:21;7.68;;;2.03;;
23404;SDS011;11875;49.356;2.718;2023-07-30T10:01:48;4.07;;;1.70;;
23404;SDS011;11875;49.356;2.718;2023-07-30T10:04:14;6.75;;;1.88;;
23404;SDS011;11875;49.356;2.718;2023-07-30T10:06:49;6.45;;;1.73;;
23404;SDS011;11875;49.356;2.718;2023-07-30T10:09:20;4.55;;;1.38;;
23404;SDS011;11875;49.356;2.718;2023-07-30T10:11:48;4.20;;;1.65;;
23404;SDS011;11875;49.356;2.718;2023-07-30T10:14:16;7.43;;;1.95;;
23404;SDS011;11875;49.356;2.718;2023-07-30T10:16:53;7.60;;;1.77;;
23404;SDS011;11875;49.356;2.718;2023-07-30T10:19:24;9.30;;;1.88;;
23404;SDS011;11875;49.356;2.718;2023-07-30T10:21:50;7.53;;;1.95;;
23404;SDS011;11875;49.356;2.718;2023-07-30T10:24:16;6.55;;;1.63;;
23404;SDS011;11875;49.356;2.718;2023-07-30T10:26:42;7.05;;;1.60;;
23404;SDS011;11875;49.356;2.718;2023-07-30T10:31:39;4.80;;;1.38;;
23404;SDS011;11875;49.356;2.718;2023-07-30T10:34:12;4.97;;;1.85;;
23404;SDS011;11875;49.356;2.718;2023-07-30T10:36:42;6.22;;;1.80;;
23404;SDS011;11875;49.356;2.718;2023-07-30T10:39:19;5.53;;;1.88;;
23404;SDS011;11875;49.356;2.718;2023-07-30T10:41:55;4.78;;;1.45;;
23404;SDS011;11875;49.356;2.718;2023-07-30T10:46:47;4.38;;;1.70;;
23404;SDS011;11875;49.356;2.718;2023-07-30T10:49:13;7.10;;;2.08;;
23404;SDS011;11875;49.356;2.718;2023-07-30T10:51:38;6.97;;;1.85;;
23404;SDS011;11875;49.356;2.718;2023-07-30T10:54:08;6.03;;;1.85;;
23404;SDS011;11875;49.356;2.718;2023-07-30T10:56:34;5.93;;;1.70;;
23404;SDS011;11875;49.356;2.718;2023-07-30T10:59:05;3.95;;;1.60;;
23404;SDS011;11875;49.356;2.718;2023-07-30T11:01:35;4.55;;;1.50;;
23404;SDS011;11875;49.356;2.718;2023-07-30T11:04:05;4.55;;;1.60;;
23404;SDS011;11875;49.356;2.718;2023-07-30T11:06:38;4.20;;;1.65;;
23404;SDS011;11875;49.356;2.718;2023-07-30T11:09:04;5.35;;;2.08;;
23404;SDS011;11875;49.356;2.718;2023-07-30T11:11:30;8.65;;;2.40;;
23404;SDS011;11875;49.356;2.718;2023-07-30T11:13:56;5.22;;;1.80;;
23404;SDS011;11875;49.356;2.718;2023-07-30T11:16:23;5.28;;;1.95;;
23404;SDS011;11875;49.356;2.718;2023-07-30T11:18:49;3.78;;;1.80;;
23404;SDS011;11875;49.356;2.718;2023-07-30T11:21:15;4.63;;;1.90;;
23404;SDS011;11875;49.356;2.718;2023-07-30T11:23:42;6.13;;;2.20;;
23404;SDS011;11875;49.356;2.718;2023-07-30T11:26:17;3.55;;;1.67;;
23404;SDS011;11875;49.356;2.718;2023-07-30T11:28:43;4.97;;;1.60;;
23404;SDS011;11875;49.356;2.718;2023-07-30T11:31:16;7.32;;;2.42;;
23404;SDS011;11875;49.356;2.718;2023-07-30T11:33:47;3.30;;;1.42;;
23404;SDS011;11875;49.356;2.718;2023-07-30T11:36:21;5.28;;;1.67;;
23404;SDS011;11875;49.356;2.718;2023-07-30T11:38:49;4.28;;;1.70;;
23404;SDS011;11875;49.356;2.718;2023-07-30T11:41:17;3.47;;;1.70;;
23404;SDS011;11875;49.356;2.718;2023-07-30T11:43:44;7.03;;;2.20;;
23404;SDS011;11875;49.356;2.718;2023-07-30T11:46:11;4.65;;;1.90;;
23404;SDS011;11875;49.356;2.718;2023-07-30T11:48:43;5.47;;;1.98;;
23404;SDS011;11875;49.356;2.718;2023-07-30T11:51:22;5.53;;;1.90;;
23404;SDS011;11875;49.356;2.718;2023-07-30T11:56:17;5.75;;;2.28;;
23404;SDS011;11875;49.356;2.718;2023-07-30T11:58:44;3.65;;;1.88;;
23404;SDS011;11875;49.356;2.718;2023-07-30T12:01:12;3.63;;;1.70;;
23404;SDS011;11875;49.356;2.718;2023-07-30T12:03:37;2.50;;;1.58;;
23404;SDS011;11875;49.356;2.718;2023-07-30T12:06:06;4.45;;;2.05;;
23404;SDS011;11875;49.356;2.718;2023-07-30T12:08:34;6.90;;;1.80;;
23404;SDS011;11875;49.356;2.718;2023-07-30T12:11:04;5.43;;;2.03;;
23404;SDS011;11875;49.356;2.718;2023-07-30T12:13:31;5.55;;;1.75;;
23404;SDS011;11875;49.356;2.718;2023-07-30T12:15:56;3.92;;;1.80;;
23404;SDS011;11875;49.356;2.718;2023-07-30T12:18:23;5.78;;;2.05;;
23404;SDS011;11875;49.356;2.718;2023-07-30T12:20:51;4.53;;;1.80;;
23404;SDS011;11875;49.356;2.718;2023-07-30T12:23:17;4.63;;;3.00;;
23404;SDS011;11875;49.356;2.718;2023-07-30T12:25:43;5.93;;;1.80;;
23404;SDS011;11875;49.356;2.718;2023-07-30T12:28:09;4.53;;;1.88;;
23404;SDS011;11875;49.356;2.718;2023-07-30T12:30:35;3.55;;;1.80;;
23404;SDS011;11875;49.356;2.718;2023-07-30T12:33:02;5.85;;;2.20;;
23404;SDS011;11875;49.356;2.718;2023-07-30T12:35:28;4.18;;;2.05;;
23404;SDS011;11875;49.356;2.718;2023-07-30T12:37:54;7.18;;;1.90;;
23404;SDS011;11875;49.356;2.718;2023-07-30T12:40:19;6.78;;;1.70;;
23404;SDS011;11875;49.356;2.718;2023-07-30T12:42:45;4.82;;;1.92;;
23404;SDS011;11875;49.356;2.718;2023-07-30T12:45:10;6.03;;;2.20;;
23404;SDS011;11875;49.356;2.718;2023-07-30T12:47:36;4.53;;;1.85;;
23404;SDS011;11875;49.356;2.718;2023-07-30T12:50:02;5.03;;;1.90;;
23404;SDS011;11875;49.356;2.718;2023-07-30T12:52:28;5.55;;;1.98;;
23404;SDS011;11875;49.356;2.718;2023-07-30T12:54:54;3.33;;;1.85;;
23404;SDS011;11875;49.356;2.718;2023-07-30T12:57:20;3.80;;;2.00;;
23404;SDS011;11875;49.356;2.718;2023-07-30T12:59:45;7.38;;;1.85;;
23404;SDS011;11875;49.356;2.718;2023-07-30T13:02:11;6.03;;;1.75;;
23404;SDS011;11875;49.356;2.718;2023-07-30T13:04:36;7.25;;;2.15;;
23404;SDS011;11875;49.356;2.718;2023-07-30T13:07:02;4.57;;;2.10;;
23404;SDS011;11875;49.356;2.718;2023-07-30T13:09:28;4.32;;;1.85;;
23404;SDS011;11875;49.356;2.718;2023-07-30T13:11:55;6.47;;;1.92;;
23404;SDS011;11875;49.356;2.718;2023-07-30T13:14:21;4.68;;;1.70;;
23404;SDS011;11875;49.356;2.718;2023-07-30T13:16:47;6.97;;;2.05;;
23404;SDS011;11875;49.356;2.718;2023-07-30T13:19:12;4.22;;;1.92;;
23404;SDS011;11875;49.356;2.718;2023-07-30T13:21:38;6.13;;;1.98;;
23404;SDS011;11875;49.356;2.718;2023-07-30T13:24:03;5.03;;;1.75;;
23404;SDS011;11875;49.356;2.718;2023-07-30T13:26:29;4.88;;;1.70;;
23404;SDS011;11875;49.356;2.718;2023-07-30T13:28:55;5.13;;;2.20;;
23404;SDS011;11875;49.356;2.718;2023-07-30T13:31:20;6.50;;;2.15;;
23404;SDS011;11875;49.356;2.718;2023-07-30T13:33:46;6.60;;;2.10;;
23404;SDS011;11875;49.356;2.718;2023-07-30T13:36:13;4.57;;;1.90;;
23404;SDS011;11875;49.356;2.718;2023-07-30T13:38:39;6.40;;;2.00;;
23404;SDS011;11875;49.356;2.718;2023-07-30T13:41:05;5.40;;;2.15;;
23404;SDS011;11875;49.356;2.718;2023-07-30T13:43:31;6.07;;;2.10;;
23404;SDS011;11875;49.356;2.718;2023-07-30T13:45:56;6.90;;;2.20;;
23404;SDS011;11875;49.356;2.718;2023-07-30T13:48:23;5.22;;;1.70;;
23404;SDS011;11875;49.356;2.718;2023-07-30T13:50:49;4.60;;;2.30;;
23404;SDS011;11875;49.356;2.718;2023-07-30T13:53:15;6.18;;;2.00;;
23404;SDS011;11875;49.356;2.718;2023-07-30T13:55:40;5.13;;;2.13;;
23404;SDS011;11875;49.356;2.718;2023-07-30T13:58:06;7.90;;;2.33;;
23404;SDS011;11875;49.356;2.718;2023-07-30T14:00:33;6.93;;;2.20;;
23404;SDS011;11875;49.356;2.718;2023-07-30T14:02:58;5.88;;;2.25;;
23404;SDS011;11875;49.356;2.718;2023-07-30T14:05:24;5.88;;;2.05;;
23404;SDS011;11875;49.356;2.718;2023-07-30T14:07:49;7.38;;;3.05;;
23404;SDS011;11875;49.356;2.718;2023-07-30T14:10:18;5.28;;;2.05;;
23404;SDS011;11875;49.356;2.718;2023-07-30T14:12:44;5.05;;;2.10;;
23404;SDS011;11875;49.356;2.718;2023-07-30T14:15:10;3.85;;;2.10;;
23404;SDS011;11875;49.356;2.718;2023-07-30T14:17:36;7.85;;;2.13;;
23404;SDS011;11875;49.356;2.718;2023-07-30T14:20:01;4.90;;;2.03;;
23404;SDS011;11875;49.356;2.718;2023-07-30T14:22:27;5.38;;;1.85;;
23404;SDS011;11875;49.356;2.718;2023-07-30T14:24:53;4.50;;;2.30;;
23404;SDS011;11875;49.356;2.718;2023-07-30T14:27:18;4.70;;;2.20;;
23404;SDS011;11875;49.356;2.718;2023-07-30T14:29:44;4.43;;;2.05;;
23404;SDS011;11875;49.356;2.718;2023-07-30T14:32:10;3.85;;;1.98;;
23404;SDS011;11875;49.356;2.718;2023-07-30T14:34:35;3.22;;;2.10;;
23404;SDS011;11875;49.356;2.718;2023-07-30T14:37:01;6.00;;;1.92;;
23404;SDS011;11875;49.356;2.718;2023-07-30T14:39:27;5.80;;;1.92;;
23404;SDS011;11875;49.356;2.718;2023-07-30T14:41:52;5.22;;;2.15;;
23404;SDS011;11875;49.356;2.718;2023-07-30T14:44:18;5.07;;;2.15;;
23404;SDS011;11875;49.356;2.718;2023-07-30T14:46:44;5.20;;;2.45;;
23404;SDS011;11875;49.356;2.718;2023-07-30T14:49:09;6.32;;;2.28;;
23404;SDS011;11875;49.356;2.718;2023-07-30T14:51:35;4.93;;;2.00;;